createdAt,value
2017-10-17T00:00:38.488Z,991.76
2017-10-17T00:01:38.414Z,991.78
2017-10-17T00:02:38.386Z,991.81
2017-10-17T00:03:38.332Z,991.77
2017-10-17T00:04:38.309Z,991.76
2017-10-17T00:05:38.259Z,991.77
2017-10-17T00:06:38.220Z,991.76
2017-10-17T00:07:38.179Z,991.75
2017-10-17T00:08:38.176Z,991.75
2017-10-17T00:09:38.098Z,991.76
2017-10-17T00:10:38.064Z,991.76
2017-10-17T00:11:38.015Z,991.76
2017-10-17T00:12:37.980Z,991.78
2017-10-17T00:13:37.936Z,991.69
2017-10-17T00:14:37.898Z,991.75
2017-10-17T00:15:37.881Z,991.77
2017-10-17T00:16:37.815Z,991.75
2017-10-17T00:17:37.778Z,991.75
2017-10-17T00:18:37.738Z,991.76
2017-10-17T00:19:37.708Z,991.73
2017-10-17T00:20:37.651Z,991.72
2017-10-17T00:21:37.665Z,991.76
2017-10-17T00:22:37.583Z,991.71
2017-10-17T00:23:37.543Z,991.70
2017-10-17T00:24:37.491Z,991.69
2017-10-17T00:25:37.462Z,991.71
2017-10-17T00:26:37.446Z,991.70
2017-10-17T00:27:37.413Z,991.68
2017-10-17T00:28:37.359Z,991.66
2017-10-17T00:29:37.300Z,991.68
2017-10-17T00:30:37.288Z,991.71
2017-10-17T00:31:37.240Z,991.72
2017-10-17T00:32:37.214Z,991.67
2017-10-17T00:33:37.159Z,991.68
2017-10-17T00:34:37.121Z,991.58
2017-10-17T00:35:37.900Z,991.66
2017-10-17T00:36:37.005Z,991.62
2017-10-17T00:37:36.969Z,991.66
2017-10-17T00:38:36.935Z,991.59
2017-10-17T00:39:36.883Z,991.62
2017-10-17T00:40:36.849Z,991.63
2017-10-17T00:41:36.812Z,991.61
2017-10-17T00:42:36.769Z,991.57
2017-10-17T00:43:36.731Z,991.58
2017-10-17T00:44:36.713Z,991.54
2017-10-17T00:45:36.686Z,991.54
2017-10-17T00:46:36.618Z,991.49
2017-10-17T00:47:36.561Z,991.54
2017-10-17T00:48:36.520Z,991.53
2017-10-17T00:49:36.501Z,991.51
2017-10-17T00:50:36.461Z,991.52
2017-10-17T00:51:36.402Z,991.54
2017-10-17T00:52:36.355Z,991.53
2017-10-17T00:53:36.322Z,991.51
2017-10-17T00:54:36.420Z,991.55
2017-10-17T00:55:36.232Z,991.51
2017-10-17T00:56:36.191Z,991.53
2017-10-17T00:57:36.152Z,991.49
2017-10-17T00:58:36.177Z,991.53
2017-10-17T00:59:36.072Z,991.47
2017-10-17T01:00:36.122Z,991.51
2017-10-17T01:01:36.018Z,991.43
2017-10-17T01:02:35.959Z,991.45
2017-10-17T01:03:35.908Z,991.47
2017-10-17T01:04:35.873Z,991.46
2017-10-17T01:05:35.840Z,991.40
2017-10-17T01:06:35.795Z,991.45
2017-10-17T01:07:35.757Z,991.44
2017-10-17T01:08:35.707Z,991.46
2017-10-17T01:09:35.659Z,991.43
2017-10-17T01:10:35.625Z,991.43
2017-10-17T01:11:35.586Z,991.39
2017-10-17T01:12:35.553Z,991.40
2017-10-17T01:13:35.510Z,991.40
2017-10-17T01:14:35.472Z,991.43
2017-10-17T01:15:35.424Z,991.44
2017-10-17T01:16:35.386Z,991.40
2017-10-17T01:17:35.346Z,991.41
2017-10-17T01:18:35.304Z,991.38
2017-10-17T01:19:35.268Z,991.42
2017-10-17T01:20:35.220Z,991.39
2017-10-17T01:21:35.176Z,991.41
2017-10-17T01:22:35.135Z,991.43
2017-10-17T01:23:35.106Z,991.41
2017-10-17T01:24:35.048Z,991.41
2017-10-17T01:25:35.014Z,991.44
2017-10-17T01:26:34.977Z,991.40
2017-10-17T01:27:34.929Z,991.41
2017-10-17T01:28:34.897Z,991.38
2017-10-17T01:29:34.860Z,991.40
2017-10-17T01:30:34.836Z,991.39
2017-10-17T01:31:34.777Z,991.39
2017-10-17T01:32:34.737Z,991.35
2017-10-17T01:33:34.687Z,991.35
2017-10-17T01:34:34.653Z,991.36
2017-10-17T01:35:34.617Z,991.31
2017-10-17T01:36:34.570Z,991.30
2017-10-17T01:37:34.528Z,991.31
2017-10-17T01:38:34.516Z,991.32
2017-10-17T01:39:34.463Z,991.32
2017-10-17T01:40:34.429Z,991.32
2017-10-17T01:41:34.365Z,991.28
2017-10-17T01:42:34.353Z,991.29
2017-10-17T01:43:34.296Z,991.28
2017-10-17T01:44:34.251Z,991.29
2017-10-17T01:45:34.196Z,991.24
2017-10-17T01:46:34.161Z,991.23
2017-10-17T01:47:34.110Z,991.25
2017-10-17T01:48:34.078Z,991.19
2017-10-17T01:49:34.037Z,991.21
2017-10-17T01:50:33.996Z,991.18
2017-10-17T01:51:33.959Z,991.21
2017-10-17T01:52:33.912Z,991.18
2017-10-17T01:53:33.892Z,991.18
2017-10-17T01:54:33.900Z,991.17
2017-10-17T01:55:33.801Z,991.13
2017-10-17T01:56:33.756Z,991.17
2017-10-17T01:57:33.709Z,991.16
2017-10-17T01:58:33.702Z,991.15
2017-10-17T01:59:33.627Z,991.15
2017-10-17T02:00:33.582Z,991.12
2017-10-17T02:01:33.561Z,991.08
2017-10-17T02:02:33.524Z,991.08
2017-10-17T02:03:33.464Z,991.08
2017-10-17T02:04:33.429Z,991.10
2017-10-17T02:05:33.379Z,991.11
2017-10-17T02:06:33.412Z,991.11
2017-10-17T02:07:33.294Z,991.13
2017-10-17T02:08:33.266Z,991.12
2017-10-17T02:09:33.220Z,991.11
2017-10-17T02:10:33.188Z,991.16
2017-10-17T02:11:33.192Z,991.08
2017-10-17T02:12:33.118Z,991.03
2017-10-17T02:13:33.054Z,991.08
2017-10-17T02:14:33.015Z,991.09
2017-10-17T02:15:33.000Z,991.07
2017-10-17T02:16:32.955Z,991.11
2017-10-17T02:17:32.893Z,991.11
2017-10-17T02:18:33.416Z,991.14
2017-10-17T02:19:32.838Z,991.10
2017-10-17T02:20:32.806Z,991.09
2017-10-17T02:21:32.762Z,991.11
2017-10-17T02:22:32.682Z,991.15
2017-10-17T02:23:32.711Z,991.09
2017-10-17T02:24:32.623Z,991.09
2017-10-17T02:25:32.569Z,991.05
2017-10-17T02:26:32.523Z,991.02
2017-10-17T02:27:32.525Z,991.04
2017-10-17T02:28:32.439Z,991.06
2017-10-17T02:29:32.398Z,991.03
2017-10-17T02:30:32.430Z,991.06
2017-10-17T02:31:32.311Z,991.01
2017-10-17T02:32:32.266Z,991.04
2017-10-17T02:33:32.230Z,991.02
2017-10-17T02:34:32.188Z,991.01
2017-10-17T02:35:32.175Z,990.98
2017-10-17T02:36:32.113Z,990.99
2017-10-17T02:37:32.069Z,991.00
2017-10-17T02:38:32.024Z,990.99
2017-10-17T02:39:31.989Z,991.01
2017-10-17T02:40:31.951Z,991.01
2017-10-17T02:41:31.908Z,990.97
2017-10-17T02:42:31.871Z,991.02
2017-10-17T02:43:31.820Z,991.03
2017-10-17T02:44:31.787Z,991.05
2017-10-17T02:45:31.796Z,991.03
2017-10-17T02:46:31.704Z,991.04
2017-10-17T02:47:31.657Z,991.02
2017-10-17T02:48:31.631Z,991.07
2017-10-17T02:49:31.574Z,991.05
2017-10-17T02:50:31.541Z,991.08
2017-10-17T02:51:31.483Z,991.07
2017-10-17T02:52:31.459Z,991.07
2017-10-17T02:53:31.404Z,991.06
2017-10-17T02:54:31.392Z,991.04
2017-10-17T02:55:31.332Z,991.07
2017-10-17T02:56:31.306Z,991.02
2017-10-17T02:57:31.295Z,990.97
2017-10-17T02:58:31.220Z,990.99
2017-10-17T02:59:31.181Z,990.94
2017-10-17T03:00:31.131Z,990.91
2017-10-17T03:01:31.102Z,990.94
2017-10-17T03:02:31.065Z,990.95
2017-10-17T03:03:31.023Z,990.90
2017-10-17T03:04:31.039Z,990.94
2017-10-17T03:05:30.922Z,990.97
2017-10-17T03:06:30.886Z,990.92
2017-10-17T03:07:30.842Z,990.88
2017-10-17T03:08:30.796Z,990.91
2017-10-17T03:09:30.753Z,990.85
2017-10-17T03:10:30.706Z,990.88
2017-10-17T03:11:30.691Z,990.88
2017-10-17T03:12:30.622Z,990.88
2017-10-17T03:13:30.592Z,990.85
2017-10-17T03:14:30.575Z,990.81
2017-10-17T03:15:30.506Z,990.82
2017-10-17T03:16:30.470Z,990.84
2017-10-17T03:17:30.421Z,990.81
2017-10-17T03:18:30.387Z,990.80
2017-10-17T03:19:30.341Z,990.77
2017-10-17T03:20:30.298Z,990.78
2017-10-17T03:21:30.270Z,990.80
2017-10-17T03:22:30.238Z,990.77
2017-10-17T03:23:30.207Z,990.77
2017-10-17T03:24:30.135Z,990.78
2017-10-17T03:25:30.089Z,990.76
2017-10-17T03:26:30.099Z,990.72
2017-10-17T03:27:30.100Z,990.77
2017-10-17T03:28:29.972Z,990.76
2017-10-17T03:29:29.969Z,990.72
2017-10-17T03:30:29.886Z,990.73
2017-10-17T03:31:29.861Z,990.74
2017-10-17T03:32:29.820Z,990.74
2017-10-17T03:33:29.820Z,990.68
2017-10-17T03:34:29.719Z,990.73
2017-10-17T03:35:29.684Z,990.71
2017-10-17T03:36:29.650Z,990.73
2017-10-17T03:37:29.604Z,990.72
2017-10-17T03:38:29.549Z,990.73
2017-10-17T03:39:29.517Z,990.72
2017-10-17T03:40:29.467Z,990.68
2017-10-17T03:41:29.444Z,990.63
2017-10-17T03:42:29.384Z,990.71
2017-10-17T03:43:29.353Z,990.66
2017-10-17T03:44:29.324Z,990.74
2017-10-17T03:45:29.270Z,990.68
2017-10-17T03:46:29.930Z,990.70
2017-10-17T03:47:29.181Z,990.70
2017-10-17T03:48:29.176Z,990.65
2017-10-17T03:49:29.096Z,990.65
2017-10-17T03:50:29.065Z,990.60
2017-10-17T03:51:29.031Z,990.62
2017-10-17T03:52:29.036Z,990.62
2017-10-17T03:53:28.966Z,990.59
2017-10-17T03:54:28.920Z,990.58
2017-10-17T03:55:28.877Z,990.54
2017-10-17T03:56:28.847Z,990.64
2017-10-17T03:57:28.771Z,990.60
2017-10-17T03:58:28.765Z,990.61
2017-10-17T03:59:28.703Z,990.67
2017-10-17T04:00:28.656Z,990.70
2017-10-17T04:01:28.633Z,990.66
2017-10-17T04:02:28.575Z,990.67
2017-10-17T04:03:28.574Z,990.69
2017-10-17T04:04:28.499Z,990.71
2017-10-17T04:05:28.511Z,990.71
2017-10-17T04:06:28.410Z,990.71
2017-10-17T04:07:28.401Z,990.74
2017-10-17T04:08:28.324Z,990.74
2017-10-17T04:09:28.295Z,990.72
2017-10-17T04:10:28.240Z,990.72
2017-10-17T04:11:28.240Z,990.71
2017-10-17T04:12:28.160Z,990.72
2017-10-17T04:13:28.116Z,990.70
2017-10-17T04:14:28.095Z,990.74
2017-10-17T04:15:28.020Z,990.69
2017-10-17T04:16:28.001Z,990.71
2017-10-17T04:17:27.945Z,990.69
2017-10-17T04:18:27.897Z,990.64
2017-10-17T04:19:27.865Z,990.69
2017-10-17T04:20:27.831Z,990.71
2017-10-17T04:21:27.772Z,990.68
2017-10-17T04:22:27.834Z,990.67
2017-10-17T04:23:27.708Z,990.72
2017-10-17T04:24:27.663Z,990.72
2017-10-17T04:25:27.613Z,990.74
2017-10-17T04:26:27.577Z,990.72
2017-10-17T04:27:27.520Z,990.71
2017-10-17T04:28:27.489Z,990.67
2017-10-17T04:29:27.442Z,990.64
2017-10-17T04:30:27.421Z,990.62
2017-10-17T04:31:27.462Z,990.66
2017-10-17T04:32:27.330Z,990.67
2017-10-17T04:33:27.295Z,990.66
2017-10-17T04:34:27.246Z,990.69
2017-10-17T04:35:27.231Z,990.70
2017-10-17T04:36:27.167Z,990.65
2017-10-17T04:37:27.216Z,990.71
2017-10-17T04:38:27.099Z,990.63
2017-10-17T04:39:27.062Z,990.69
2017-10-17T04:40:27.005Z,990.70
2017-10-17T04:41:26.952Z,990.67
2017-10-17T04:42:26.906Z,990.69
2017-10-17T04:43:26.865Z,990.71
2017-10-17T04:44:26.809Z,990.69
2017-10-17T04:45:26.802Z,990.66
2017-10-17T04:46:26.739Z,990.66
2017-10-17T04:47:26.693Z,990.65
2017-10-17T04:48:26.662Z,990.62
2017-10-17T04:49:26.606Z,990.64
2017-10-17T04:50:26.586Z,990.71
2017-10-17T04:51:26.533Z,990.62
2017-10-17T04:52:26.502Z,990.65
2017-10-17T04:53:26.451Z,990.67
2017-10-17T04:54:26.400Z,990.70
2017-10-17T04:55:26.387Z,990.67
2017-10-17T04:56:26.306Z,990.70
2017-10-17T04:57:26.288Z,990.72
2017-10-17T04:58:26.257Z,990.71
2017-10-17T04:59:26.260Z,990.72
2017-10-17T05:00:26.153Z,990.76
2017-10-17T05:01:26.110Z,990.73
2017-10-17T05:02:26.078Z,990.78
2017-10-17T05:03:26.031Z,990.74
2017-10-17T05:04:26.018Z,990.78
2017-10-17T05:05:25.945Z,990.73
2017-10-17T05:06:25.918Z,990.76
2017-10-17T05:07:25.862Z,990.75
2017-10-17T05:08:25.819Z,990.72
2017-10-17T05:09:25.775Z,990.71
2017-10-17T05:10:25.739Z,990.76
2017-10-17T05:11:25.693Z,990.70
2017-10-17T05:12:25.671Z,990.62
2017-10-17T05:13:25.612Z,990.73
2017-10-17T05:14:25.619Z,990.70
2017-10-17T05:15:25.523Z,990.73
2017-10-17T05:16:25.483Z,990.74
2017-10-17T05:17:25.453Z,990.72
2017-10-17T05:18:25.418Z,990.76
2017-10-17T05:19:25.428Z,990.74
2017-10-17T05:20:25.376Z,990.71
2017-10-17T05:21:25.287Z,990.77
2017-10-17T05:22:25.241Z,990.80
2017-10-17T05:23:25.202Z,990.79
2017-10-17T05:24:25.162Z,990.76
2017-10-17T05:25:25.110Z,990.80
2017-10-17T05:26:25.072Z,990.82
2017-10-17T05:27:25.037Z,990.84
2017-10-17T05:28:25.000Z,990.84
2017-10-17T05:29:24.952Z,990.70
2017-10-17T05:30:24.905Z,990.82
2017-10-17T05:31:24.873Z,990.81
2017-10-17T05:32:24.820Z,990.77
2017-10-17T05:33:24.792Z,990.76
2017-10-17T05:34:24.748Z,990.79
2017-10-17T05:35:24.726Z,990.77
2017-10-17T05:36:24.713Z,990.78
2017-10-17T05:37:24.616Z,990.75
2017-10-17T05:38:24.591Z,990.77
2017-10-17T05:39:24.533Z,990.76
2017-10-17T05:40:24.499Z,990.77
2017-10-17T05:41:24.483Z,990.77
2017-10-17T05:42:24.405Z,990.77
2017-10-17T05:43:24.430Z,990.81
2017-10-17T05:44:24.360Z,990.80
2017-10-17T05:45:24.307Z,990.79
2017-10-17T05:46:24.232Z,990.79
2017-10-17T05:47:24.226Z,990.83
2017-10-17T05:48:24.153Z,990.84
2017-10-17T05:49:24.103Z,990.81
2017-10-17T05:50:24.069Z,990.84
2017-10-17T05:51:24.045Z,990.81
2017-10-17T05:52:23.991Z,990.80
2017-10-17T05:53:23.965Z,990.81
2017-10-17T05:54:23.902Z,990.80
2017-10-17T05:55:23.863Z,990.81
2017-10-17T05:56:23.841Z,990.81
2017-10-17T05:57:23.799Z,990.76
2017-10-17T05:58:23.735Z,990.76
2017-10-17T05:59:23.714Z,990.75
2017-10-17T06:00:23.654Z,990.74
2017-10-17T06:01:23.612Z,990.78
2017-10-17T06:02:23.579Z,990.79
2017-10-17T06:03:23.536Z,990.80
2017-10-17T06:04:23.477Z,990.78
2017-10-17T06:05:23.468Z,990.72
2017-10-17T06:06:23.462Z,990.71
2017-10-17T06:07:23.366Z,990.69
2017-10-17T06:08:23.357Z,990.66
2017-10-17T06:09:23.301Z,990.67
2017-10-17T06:10:23.265Z,990.70
2017-10-17T06:11:23.238Z,990.65
2017-10-17T06:12:23.159Z,990.65
2017-10-17T06:13:23.182Z,990.64
2017-10-17T06:14:23.093Z,990.68
2017-10-17T06:15:23.053Z,990.69
2017-10-17T06:16:22.988Z,990.71
2017-10-17T06:17:22.988Z,990.70
2017-10-17T06:18:22.925Z,990.71
2017-10-17T06:19:22.872Z,990.76
2017-10-17T06:20:22.836Z,990.76
2017-10-17T06:21:22.788Z,990.82
2017-10-17T06:22:22.735Z,990.81
2017-10-17T06:23:22.694Z,990.80
2017-10-17T06:24:22.650Z,990.83
2017-10-17T06:25:22.633Z,990.85
2017-10-17T06:26:22.583Z,990.89
2017-10-17T06:27:22.560Z,990.85
2017-10-17T06:28:22.515Z,990.91
2017-10-17T06:29:22.486Z,990.81
2017-10-17T06:30:22.443Z,990.91
2017-10-17T06:31:22.398Z,990.88
2017-10-17T06:32:22.354Z,990.90
2017-10-17T06:33:22.296Z,990.91
2017-10-17T06:34:22.244Z,990.90
2017-10-17T06:35:22.227Z,990.89
2017-10-17T06:36:22.166Z,990.89
2017-10-17T06:37:22.123Z,990.90
2017-10-17T06:38:22.095Z,990.91
2017-10-17T06:39:22.046Z,990.90
2017-10-17T06:40:22.008Z,990.96
2017-10-17T06:41:21.973Z,990.98
2017-10-17T06:42:21.933Z,990.92
2017-10-17T06:43:21.874Z,990.92
2017-10-17T06:44:21.849Z,990.92
2017-10-17T06:45:21.795Z,990.95
2017-10-17T06:46:21.761Z,990.94
2017-10-17T06:47:21.722Z,990.98
2017-10-17T06:48:21.673Z,990.94
2017-10-17T06:49:21.656Z,990.93
2017-10-17T06:50:21.593Z,990.94
2017-10-17T06:51:21.572Z,990.97
2017-10-17T06:52:21.516Z,990.97
2017-10-17T06:53:21.485Z,990.98
2017-10-17T06:54:21.433Z,990.98
2017-10-17T06:55:21.408Z,990.97
2017-10-17T06:56:21.367Z,990.97
2017-10-17T06:57:21.319Z,991.02
2017-10-17T06:58:21.260Z,991.07
2017-10-17T06:59:21.237Z,991.03
2017-10-17T07:00:21.197Z,991.12
2017-10-17T07:01:21.151Z,991.08
2017-10-17T07:02:21.110Z,991.15
2017-10-17T07:03:21.062Z,991.09
2017-10-17T07:04:21.023Z,991.11
2017-10-17T07:05:20.988Z,991.14
2017-10-17T07:06:21.007Z,991.17
2017-10-17T07:07:20.918Z,991.13
2017-10-17T07:08:20.881Z,991.13
2017-10-17T07:09:20.845Z,991.07
2017-10-17T07:10:20.808Z,991.07
2017-10-17T07:11:20.756Z,991.07
2017-10-17T07:12:20.754Z,991.02
2017-10-17T07:13:20.724Z,991.03
2017-10-17T07:14:20.654Z,991.05
2017-10-17T07:15:20.638Z,991.06
2017-10-17T07:16:20.595Z,991.06
2017-10-17T07:17:20.549Z,991.04
2017-10-17T07:18:20.517Z,991.03
2017-10-17T07:19:20.478Z,991.05
2017-10-17T07:20:20.451Z,991.00
2017-10-17T07:21:20.426Z,991.04
2017-10-17T07:22:20.392Z,991.03
2017-10-17T07:23:20.359Z,991.07
2017-10-17T07:24:20.319Z,991.05
2017-10-17T07:25:20.288Z,991.03
2017-10-17T07:26:20.242Z,990.97
2017-10-17T07:27:20.215Z,991.03
2017-10-17T07:28:20.198Z,991.00
2017-10-17T07:29:20.169Z,990.97
2017-10-17T07:30:20.120Z,990.94
2017-10-17T07:31:20.089Z,990.85
2017-10-17T07:32:20.081Z,990.79
2017-10-17T07:33:20.036Z,990.82
2017-10-17T07:34:19.990Z,990.87
2017-10-17T07:35:19.964Z,990.90
2017-10-17T07:36:19.918Z,990.96
2017-10-17T07:37:19.878Z,990.95
2017-10-17T07:38:19.864Z,990.90
2017-10-17T07:39:19.826Z,990.87
2017-10-17T07:40:19.820Z,990.95
2017-10-17T07:41:19.761Z,990.94
2017-10-17T07:42:19.721Z,991.00
2017-10-17T07:43:19.699Z,991.00
2017-10-17T07:44:19.672Z,991.04
2017-10-17T07:45:19.622Z,991.07
2017-10-17T07:46:19.626Z,991.07
2017-10-17T07:47:19.571Z,991.11
2017-10-17T07:48:19.541Z,991.11
2017-10-17T07:49:19.500Z,991.12
2017-10-17T07:50:19.469Z,991.07
2017-10-17T07:51:19.454Z,991.07
2017-10-17T07:52:19.408Z,991.03
2017-10-17T07:53:19.397Z,991.01
2017-10-17T07:54:19.404Z,991.02
2017-10-17T07:55:19.310Z,991.02
2017-10-17T07:56:19.293Z,991.01
2017-10-17T07:57:19.238Z,991.02
2017-10-17T07:58:19.196Z,991.00
2017-10-17T07:59:19.191Z,991.01
2017-10-17T08:00:19.137Z,991.00
2017-10-17T08:01:19.119Z,991.07
2017-10-17T08:02:19.087Z,991.07
2017-10-17T08:03:19.049Z,991.08
2017-10-17T08:04:19.015Z,991.07
2017-10-17T08:05:18.974Z,991.05
2017-10-17T08:06:18.955Z,991.09
2017-10-17T08:07:19.474Z,991.08
2017-10-17T08:08:18.874Z,991.10
2017-10-17T08:09:18.847Z,991.09
2017-10-17T08:10:18.801Z,991.08
2017-10-17T08:11:18.786Z,991.09
2017-10-17T08:12:18.749Z,991.11
2017-10-17T08:13:18.693Z,991.05
2017-10-17T08:14:18.687Z,991.07
2017-10-17T08:15:18.638Z,991.08
2017-10-17T08:16:18.595Z,991.09
2017-10-17T08:17:18.573Z,991.10
2017-10-17T08:18:18.532Z,991.13
2017-10-17T08:19:18.509Z,991.11
2017-10-17T08:20:18.494Z,991.11
2017-10-17T08:21:18.450Z,991.11
2017-10-17T08:22:18.415Z,991.08
2017-10-17T08:23:18.367Z,991.10
2017-10-17T08:24:18.357Z,990.99
2017-10-17T08:25:18.315Z,991.03
2017-10-17T08:26:18.294Z,990.98
2017-10-17T08:27:18.240Z,990.99
2017-10-17T08:28:18.212Z,991.05
2017-10-17T08:29:18.199Z,991.04
2017-10-17T08:30:18.151Z,991.07
2017-10-17T08:31:18.133Z,991.05
2017-10-17T08:32:18.100Z,991.09
2017-10-17T08:33:18.066Z,991.08
2017-10-17T08:34:18.032Z,991.13
2017-10-17T08:35:18.013Z,991.14
2017-10-17T08:36:17.964Z,991.16
2017-10-17T08:37:17.946Z,991.10
2017-10-17T08:38:17.929Z,991.07
2017-10-17T08:39:17.890Z,991.09
2017-10-17T08:40:17.849Z,991.03
2017-10-17T08:41:17.826Z,990.99
2017-10-17T08:42:17.783Z,991.03
2017-10-17T08:43:17.766Z,991.00
2017-10-17T08:44:17.749Z,991.01
2017-10-17T08:45:17.717Z,991.03
2017-10-17T08:46:17.693Z,991.08
2017-10-17T08:47:17.651Z,991.00
2017-10-17T08:48:17.609Z,990.99
2017-10-17T08:49:17.603Z,991.00
2017-10-17T08:50:17.560Z,990.97
2017-10-17T08:51:17.537Z,990.95
2017-10-17T08:52:17.494Z,990.98
2017-10-17T08:53:17.489Z,990.94
2017-10-17T08:54:17.434Z,990.97
2017-10-17T08:55:17.402Z,990.99
2017-10-17T08:56:17.377Z,990.98
2017-10-17T08:57:17.347Z,990.97
2017-10-17T08:58:17.319Z,991.00
2017-10-17T08:59:17.278Z,990.98
2017-10-17T09:00:17.259Z,990.99
2017-10-17T09:01:17.254Z,991.00
2017-10-17T09:02:17.199Z,990.98
2017-10-17T09:03:17.179Z,991.01
2017-10-17T09:04:17.149Z,991.08
2017-10-17T09:05:17.154Z,991.05
2017-10-17T09:06:17.109Z,991.06
2017-10-17T09:07:17.075Z,991.06
2017-10-17T09:08:17.043Z,990.99
2017-10-17T09:09:17.049Z,990.99
2017-10-17T09:10:16.985Z,991.02
2017-10-17T09:11:16.989Z,991.00
2017-10-17T09:12:16.961Z,991.06
2017-10-17T09:13:16.915Z,991.05
2017-10-17T09:14:16.915Z,990.99
2017-10-17T09:15:16.874Z,991.04
2017-10-17T09:16:16.844Z,991.04
2017-10-17T09:17:16.832Z,991.02
2017-10-17T09:18:16.800Z,990.99
2017-10-17T09:19:16.775Z,990.99
2017-10-17T09:20:16.749Z,990.97
2017-10-17T09:21:16.709Z,990.99
2017-10-17T09:22:16.701Z,990.97
2017-10-17T09:23:16.687Z,990.96
2017-10-17T09:24:16.644Z,990.95
2017-10-17T09:25:16.637Z,990.89
2017-10-17T09:26:16.614Z,990.93
2017-10-17T09:27:16.587Z,990.94
2017-10-17T09:28:16.562Z,990.90
2017-10-17T09:29:16.594Z,990.89
2017-10-17T09:30:16.531Z,990.91
2017-10-17T09:31:16.519Z,990.91
2017-10-17T09:32:16.495Z,990.85
2017-10-17T09:33:16.458Z,990.82
2017-10-17T09:34:16.446Z,990.84
2017-10-17T09:35:16.410Z,990.85
2017-10-17T09:36:16.407Z,990.82
2017-10-17T09:37:16.371Z,990.81
2017-10-17T09:38:16.362Z,990.82
2017-10-17T09:39:16.336Z,990.81
2017-10-17T09:40:16.313Z,990.73
2017-10-17T09:41:16.304Z,990.75
2017-10-17T09:42:16.282Z,990.74
2017-10-17T09:43:16.262Z,990.73
2017-10-17T09:44:16.229Z,990.69
2017-10-17T09:45:16.240Z,990.69
2017-10-17T09:46:16.211Z,990.74
2017-10-17T09:47:16.172Z,990.72
2017-10-17T09:48:16.178Z,990.71
2017-10-17T09:49:16.143Z,990.73
2017-10-17T09:50:16.130Z,990.66
2017-10-17T09:51:16.111Z,990.64
2017-10-17T09:52:16.078Z,990.70
2017-10-17T09:53:16.068Z,990.64
2017-10-17T09:54:16.048Z,990.69
2017-10-17T09:55:16.041Z,990.64
2017-10-17T09:56:16.000Z,990.58
2017-10-17T09:57:15.987Z,990.61
2017-10-17T09:58:15.981Z,990.64
2017-10-17T09:59:15.963Z,990.59
2017-10-17T10:00:15.922Z,990.58
2017-10-17T10:01:15.934Z,990.57
2017-10-17T10:02:15.899Z,990.62
2017-10-17T10:03:15.910Z,990.56
2017-10-17T10:04:15.868Z,990.59
2017-10-17T10:05:15.820Z,990.56
2017-10-17T10:06:15.814Z,990.56
2017-10-17T10:07:15.818Z,990.54
2017-10-17T10:08:15.783Z,990.51
2017-10-17T10:09:15.777Z,990.50
2017-10-17T10:10:15.743Z,990.50
2017-10-17T10:11:15.723Z,990.47
2017-10-17T10:12:15.726Z,990.44
2017-10-17T10:13:15.700Z,990.44
2017-10-17T10:14:15.664Z,990.47
2017-10-17T10:15:15.649Z,990.43
2017-10-17T10:16:15.634Z,990.44
2017-10-17T10:17:15.624Z,990.43
2017-10-17T10:18:15.607Z,990.43
2017-10-17T10:19:15.579Z,990.40
2017-10-17T10:20:15.568Z,990.41
2017-10-17T10:21:15.540Z,990.38
2017-10-17T10:22:15.524Z,990.34
2017-10-17T10:23:15.481Z,990.40
2017-10-17T10:24:15.487Z,990.36
2017-10-17T10:25:15.461Z,990.42
2017-10-17T10:26:15.444Z,990.38
2017-10-17T10:27:15.422Z,990.34
2017-10-17T10:28:15.402Z,990.34
2017-10-17T10:29:15.388Z,990.31
2017-10-17T10:30:15.369Z,990.26
2017-10-17T10:31:15.356Z,990.30
2017-10-17T10:32:15.357Z,990.29
2017-10-17T10:33:15.330Z,990.27
2017-10-17T10:34:15.322Z,990.28
2017-10-17T10:35:15.290Z,990.23
2017-10-17T10:36:15.266Z,990.21
2017-10-17T10:37:15.251Z,990.27
2017-10-17T10:38:15.249Z,990.20
2017-10-17T10:39:15.233Z,990.19
2017-10-17T10:40:15.204Z,990.18
2017-10-17T10:41:15.175Z,990.17
2017-10-17T10:42:15.157Z,990.16
2017-10-17T10:43:15.147Z,990.19
2017-10-17T10:44:15.106Z,990.15
2017-10-17T10:45:15.112Z,990.14
2017-10-17T10:46:15.075Z,990.15
2017-10-17T10:47:15.055Z,990.15
2017-10-17T10:48:15.037Z,990.10
2017-10-17T10:49:15.020Z,990.07
2017-10-17T10:50:15.005Z,990.05
2017-10-17T10:51:14.983Z,990.06
2017-10-17T10:52:14.977Z,990.02
2017-10-17T10:53:14.950Z,989.99
2017-10-17T10:54:14.948Z,990.05
2017-10-17T10:55:14.905Z,989.99
2017-10-17T10:56:14.893Z,989.95
2017-10-17T10:57:14.884Z,989.97
2017-10-17T10:58:14.872Z,989.96
2017-10-17T10:59:14.831Z,989.98
2017-10-17T11:00:14.813Z,989.97
2017-10-17T11:01:14.821Z,989.89
2017-10-17T11:02:14.831Z,989.92
2017-10-17T11:03:14.791Z,989.89
2017-10-17T11:04:14.738Z,989.86
2017-10-17T11:05:14.724Z,989.85
2017-10-17T11:06:14.751Z,989.87
2017-10-17T11:07:14.701Z,989.84
2017-10-17T11:08:14.667Z,989.80
2017-10-17T11:09:14.676Z,989.82
2017-10-17T11:10:14.646Z,989.84
2017-10-17T11:11:14.618Z,989.80
2017-10-17T11:12:14.606Z,989.83
2017-10-17T11:13:14.597Z,989.76
2017-10-17T11:14:14.592Z,989.76
2017-10-17T11:15:14.556Z,989.76
2017-10-17T11:16:14.526Z,989.73
2017-10-17T11:17:14.498Z,989.70
2017-10-17T11:18:14.488Z,989.72
2017-10-17T11:19:14.481Z,989.71
2017-10-17T11:20:14.497Z,989.66
2017-10-17T11:21:14.446Z,989.62
2017-10-17T11:22:14.422Z,989.61
2017-10-17T11:23:14.403Z,989.68
2017-10-17T11:24:14.388Z,989.59
2017-10-17T11:25:14.363Z,989.60
2017-10-17T11:26:14.334Z,989.59
2017-10-17T11:27:14.309Z,989.56
2017-10-17T11:28:14.309Z,989.56
2017-10-17T11:29:14.289Z,989.51
2017-10-17T11:30:14.292Z,989.49
2017-10-17T11:31:14.238Z,989.48
2017-10-17T11:32:14.222Z,989.47
2017-10-17T11:33:14.226Z,989.43
2017-10-17T11:34:14.207Z,989.38
2017-10-17T11:35:14.181Z,989.43
2017-10-17T11:36:14.148Z,989.39
2017-10-17T11:37:14.126Z,989.39
2017-10-17T11:38:14.109Z,989.37
2017-10-17T11:39:14.117Z,989.37
2017-10-17T11:40:14.066Z,989.35
2017-10-17T11:41:14.037Z,989.31
2017-10-17T11:42:14.028Z,989.28
2017-10-17T11:43:14.021Z,989.29
2017-10-17T11:44:13.989Z,989.28
2017-10-17T11:45:13.976Z,989.26
2017-10-17T11:46:13.944Z,989.26
2017-10-17T11:47:13.934Z,989.15
2017-10-17T11:48:13.932Z,989.17
2017-10-17T11:49:13.906Z,989.22
2017-10-17T11:50:13.870Z,989.19
2017-10-17T11:51:13.861Z,989.20
2017-10-17T11:52:13.843Z,989.14
2017-10-17T11:53:13.830Z,989.09
2017-10-17T11:54:13.787Z,989.09
2017-10-17T11:55:13.773Z,989.06
2017-10-17T11:56:13.755Z,989.00
2017-10-17T11:57:13.732Z,988.95
2017-10-17T11:58:13.711Z,988.97
2017-10-17T11:59:13.716Z,988.97
2017-10-17T12:00:13.685Z,988.98
2017-10-17T12:01:13.682Z,989.00
2017-10-17T12:02:13.659Z,988.93
2017-10-17T12:03:13.622Z,988.81
2017-10-17T12:04:13.634Z,988.84
2017-10-17T12:05:13.588Z,988.84
2017-10-17T12:06:13.570Z,988.80
2017-10-17T12:07:13.562Z,988.80
2017-10-17T12:08:13.523Z,988.83
2017-10-17T12:09:13.511Z,988.72
2017-10-17T12:10:13.501Z,988.75
2017-10-17T12:11:13.472Z,988.73
2017-10-17T12:12:13.442Z,988.72
2017-10-17T12:13:13.432Z,988.72
2017-10-17T12:14:13.445Z,988.68
2017-10-17T12:15:13.393Z,988.65
2017-10-17T12:16:13.388Z,988.65
2017-10-17T12:17:13.366Z,988.65
2017-10-17T12:18:13.335Z,988.64
2017-10-17T12:19:13.310Z,988.65
2017-10-17T12:20:13.326Z,988.66
2017-10-17T12:21:13.283Z,988.61
2017-10-17T12:22:13.273Z,988.64
2017-10-17T12:23:13.257Z,988.57
2017-10-17T12:24:13.207Z,988.59
2017-10-17T12:25:13.182Z,988.59
2017-10-17T12:26:13.167Z,988.56
2017-10-17T12:27:13.164Z,988.58
2017-10-17T12:28:13.143Z,988.58